Terminal Aerodrome Forecast
Issued by NWS Newport/Morehead City, NC

Home | Current Version | Previous Version | Text Only | Print | Product List | Glossary On
Versions: 1 2 3 4 5 6 7 8 9 10 11 12 13 14 15 16 17 18
000
FTUS42 KMHX 222300
TAFEWN
TAF
KEWN 222320Z 2300/2324 03004KT P6SM BKN100
     FM231400 04010KT P6SM VCSH SCT025 OVC050
     FM231700 04011G18KT P6SM -RA BKN025 OVC050=

USA.gov is the U.S. government's official web portal to all federal, state and local government web resources and services.